Time,TemperatureF,DewpointF,PressureIn,WindDirection,WindDirectionDegrees,WindSpeedMPH,WindSpeedGustMPH,Humidity,HourlyPrecipIn,Conditions,Clouds,dailyrainin,SoftwareType,DateUTC
2013-03-13 00:00:00,55.2,54.1,29.92,SW,231,0.0,0.0,96,0.00,RA,,0.00,WeatherDisplay:10.37,2013-03-13 04:00:00,
2013-03-13 00:05:00,55.2,54.1,29.92,NW,317,0.0,0.0,96,0.00,RA,,0.00,WeatherDisplay:10.37,2013-03-13 04:05:00,
2013-03-13 00:10:00,55.0,54.2,29.92,WNW,300,0.0,1.0,97,0.00,CLR,,0.00,WeatherDisplay:10.37,2013-03-13 04:10:00,
2013-03-13 00:15:00,55.0,54.2,29.92,West,263,0.0,0.0,97,0.00,CLR,,0.00,WeatherDisplay:10.37,2013-03-13 04:15:00,
2013-03-13 00:20:00,54.9,54.0,29.93,WNW,295,0.0,0.0,97,0.00,CLR,,0.00,WeatherDisplay:10.37,2013-03-13 04:20:00,
2013-03-13 00:25:00,54.9,54.0,29.93,NW,306,0.0,0.0,97,0.00,CLR,,0.00,WeatherDisplay:10.37,2013-03-13 04:25:00,
2013-03-13 00:30:00,54.7,53.8,29.93,WNW,303,0.0,2.0,97,0.00,CLR,,0.00,WeatherDisplay:10.37,2013-03-13 04:30:00,
2013-03-13 00:40:00,54.5,53.7,29.93,West,274,0.0,0.0,97,0.00,CLR,,0.00,WeatherDisplay:10.37,2013-03-13 04:40:00,
2013-03-13 00:45:00,54.3,53.8,29.93,West,278,0.0,0.0,98,0.00,CLR,,0.00,WeatherDisplay:10.37,2013-03-13 04:45:00,
2013-03-13 00:50:00,54.1,53.6,29.93,West,278,0.0,0.0,98,0.00,CLR,,0.00,WeatherDisplay:10.37,2013-03-13 04:50:00,
2013-03-13 00:55:00,54.0,53.4,29.93,West,278,0.0,0.0,98,0.00,CLR,,0.00,WeatherDisplay:10.37,2013-03-13 04:55:00,
2013-03-13 01:00:00,53.8,53.2,29.93,West,278,0.0,0.0,98,0.00,CLR,,0.00,WeatherDisplay:10.37,2013-03-13 05:00:00,
2013-03-13 01:05:00,53.4,53.1,29.94,West,278,0.0,0.0,99,0.00,CLR,,0.00,WeatherDisplay:10.37,2013-03-13 05:05:00,
2013-03-13 01:10:00,53.2,53.0,29.94,West,278,0.0,0.0,99,0.00,CLR,,0.00,WeatherDisplay:10.37,2013-03-13 05:10:00,
2013-03-13 01:15:00,52.9,52.6,29.94,West,281,0.0,0.0,99,0.00,CLR,,0.00,WeatherDisplay:10.37,2013-03-13 05:15:00,
2013-03-13 01:25:00,52.5,52.2,29.95,NW,323,0.0,1.0,99,0.00,CLR,,0.00,WeatherDisplay:10.37,2013-03-13 05:25:00,
2013-03-13 01:30:00,52.3,52.1,29.95,NW,316,0.0,0.0,99,0.00,CLR,,0.00,WeatherDisplay:10.37,2013-03-13 05:30:00,
2013-03-13 01:35:00,52.3,52.0,29.95,WNW,290,0.0,0.0,99,0.00,CLR,,0.00,WeatherDisplay:10.37,2013-03-13 05:35:00,
2013-03-13 01:40:00,52.2,51.9,29.95,West,278,0.0,0.0,99,0.00,CLR,,0.00,WeatherDisplay:10.37,2013-03-13 05:40:00,
2013-03-13 01:45:00,52.0,51.7,29.95,WNW,296,0.0,2.0,99,0.00,CLR,,0.00,WeatherDisplay:10.37,2013-03-13 05:45:00,
2013-03-13 01:50:00,52.0,51.7,29.96,NW,313,0.0,2.0,99,0.00,CLR,,0.00,WeatherDisplay:10.37,2013-03-13 05:50:00,
2013-03-13 01:55:00,52.0,51.7,29.96,NNW,327,0.0,2.0,99,0.00,CLR,,0.00,WeatherDisplay:10.37,2013-03-13 05:55:00,
2013-03-13 02:00:00,51.9,51.6,29.96,NW,314,0.0,1.0,99,0.00,CLR,,0.00,WeatherDisplay:10.37,2013-03-13 06:00:00,
2013-03-13 02:05:00,51.8,51.5,29.96,NW,306,1.0,2.0,99,0.00,CLR,,0.00,WeatherDisplay:10.37,2013-03-13 06:05:00,
2013-03-13 02:10:00,51.8,51.5,29.97,NW,323,0.0,2.0,99,0.00,CLR,,0.00,WeatherDisplay:10.37,2013-03-13 06:10:00,
2013-03-13 02:15:00,51.8,51.5,29.96,NNW,336,0.0,3.0,99,0.00,CLR,,0.00,WeatherDisplay:10.37,2013-03-13 06:15:00,
2013-03-13 02:20:00,52.1,51.3,29.97,NNW,340,1.0,3.0,97,0.00,CLR,,0.00,WeatherDisplay:10.37,2013-03-13 06:20:00,
2013-03-13 02:25:00,52.4,49.9,29.97,NW,319,1.0,4.0,91,0.00,CLR,,0.00,WeatherDisplay:10.37,2013-03-13 06:25:00,
2013-03-13 02:30:00,52.7,48.7,29.97,North,351,1.0,5.0,86,0.00,CLR,,0.00,WeatherDisplay:10.37,2013-03-13 06:30:00,
2013-03-13 02:35:00,53.0,47.7,29.97,North,353,2.0,3.0,82,0.00,CLR,,0.00,WeatherDisplay:10.37,2013-03-13 06:35:00,
2013-03-13 02:45:00,53.2,45.9,29.97,North,350,1.0,6.0,76,0.00,CLR,,0.00,WeatherDisplay:10.37,2013-03-13 06:45:00,
2013-03-13 02:50:00,53.1,45.3,29.98,NNW,342,1.0,4.0,75,0.00,CLR,,0.00,WeatherDisplay:10.37,2013-03-13 06:50:00,
2013-03-13 02:55:00,52.9,45.2,29.98,North,354,1.0,3.0,75,0.00,CLR,,0.00,WeatherDisplay:10.37,2013-03-13 06:55:00,
2013-03-13 03:00:00,52.9,43.7,29.98,North,355,1.0,5.0,71,0.00,CLR,,0.00,WeatherDisplay:10.37,2013-03-13 07:00:00,
2013-03-13 03:05:00,52.9,44.1,29.98,NNW,333,1.0,2.0,72,0.00,CLR,,0.00,WeatherDisplay:10.37,2013-03-13 07:05:00,
2013-03-13 03:10:00,52.8,41.8,29.98,NNW,327,2.0,6.0,66,0.00,CLR,,0.00,WeatherDisplay:10.37,2013-03-13 07:10:00,
2013-03-13 03:15:00,52.9,41.4,29.98,NNW,343,2.0,4.0,65,0.00,CLR,,0.00,WeatherDisplay:10.37,2013-03-13 07:15:00,
2013-03-13 03:20:00,52.8,41.8,29.98,NNW,335,1.0,4.0,66,0.00,CLR,,0.00,WeatherDisplay:10.37,2013-03-13 07:20:00,
2013-03-13 03:25:00,52.5,41.9,29.98,NNW,332,1.0,2.0,67,0.00,CLR,,0.00,WeatherDisplay:10.37,2013-03-13 07:25:00,
2013-03-13 03:30:00,52.2,40.8,29.98,NNW,346,2.0,6.0,65,0.00,CLR,,0.00,WeatherDisplay:10.37,2013-03-13 07:30:00,
2013-03-13 03:35:00,52.2,41.1,29.98,North,357,1.0,3.0,66,0.00,CLR,,0.00,WeatherDisplay:10.37,2013-03-13 07:35:00,
2013-03-13 03:40:00,52.0,41.0,29.98,NNW,343,1.0,5.0,66,0.00,CLR,,0.00,WeatherDisplay:10.37,2013-03-13 07:40:00,
2013-03-13 03:50:00,51.8,40.8,29.98,NNW,339,1.0,3.0,66,0.00,CLR,,0.00,WeatherDisplay:10.37,2013-03-13 07:50:00,
2013-03-13 03:55:00,51.5,40.5,29.98,NW,326,1.0,2.0,66,0.00,CLR,,0.00,WeatherDisplay:10.37,2013-03-13 07:55:00,
2013-03-13 04:00:00,51.2,41.0,29.98,NW,326,0.0,2.0,68,0.00,CLR,,0.00,WeatherDisplay:10.37,2013-03-13 08:00:00,
2013-03-13 04:05:00,51.1,40.9,29.98,NW,323,0.0,2.0,68,0.00,CLR,,0.00,WeatherDisplay:10.37,2013-03-13 08:05:00,
2013-03-13 04:10:00,50.4,41.7,29.99,NW,317,0.0,2.0,72,0.00,CLR,,0.00,WeatherDisplay:10.37,2013-03-13 08:10:00,
2013-03-13 04:15:00,50.0,42.0,29.99,NW,310,0.0,2.0,74,0.00,CLR,,0.00,WeatherDisplay:10.37,2013-03-13 08:15:00,
2013-03-13 04:20:00,49.4,42.2,29.99,NW,317,0.0,2.0,76,0.00,CLR,,0.00,WeatherDisplay:10.37,2013-03-13 08:20:00,
2013-03-13 04:25:00,48.9,42.0,29.99,NW,323,0.0,2.0,77,0.00,CLR,,0.00,WeatherDisplay:10.37,2013-03-13 08:25:00,
2013-03-13 04:30:00,48.6,42.3,29.99,NW,305,0.0,2.0,79,0.00,CLR,,0.00,WeatherDisplay:10.37,2013-03-13 08:30:00,
2013-03-13 04:40:00,48.0,42.1,29.99,WNW,293,0.0,2.0,80,0.00,CLR,,0.00,WeatherDisplay:10.37,2013-03-13 08:40:00,
2013-03-13 04:45:00,47.8,42.3,30.00,West,277,0.0,0.0,81,0.00,CLR,,0.00,WeatherDisplay:10.37,2013-03-13 08:45:00,
2013-03-13 04:50:00,47.5,41.9,30.00,WSW,251,0.0,0.0,81,0.00,CLR,,0.00,WeatherDisplay:10.37,2013-03-13 08:50:00,
2013-03-13 05:00:00,46.9,42.0,30.00,NW,323,0.0,2.0,83,0.00,CLR,,0.00,WeatherDisplay:10.37,2013-03-13 09:00:00,
2013-03-13 05:05:00,46.9,42.0,30.01,NW,323,0.0,2.0,83,0.00,CLR,,0.00,WeatherDisplay:10.37,2013-03-13 09:05:00,
2013-03-13 05:10:00,46.8,41.9,30.00,NNW,327,0.0,2.0,83,0.00,CLR,,0.00,WeatherDisplay:10.37,2013-03-13 09:10:00,
2013-03-13 05:15:00,46.8,41.9,30.01,NNW,330,0.0,2.0,83,0.00,CLR,,0.00,WeatherDisplay:10.37,2013-03-13 09:15:00,
2013-03-13 05:20:00,46.9,41.7,30.01,NNW,331,1.0,2.0,82,0.00,CLR,,0.00,WeatherDisplay:10.37,2013-03-13 09:20:00,
2013-03-13 05:25:00,47.1,41.3,30.01,NNW,337,1.0,3.0,80,0.00,CLR,,0.00,WeatherDisplay:10.37,2013-03-13 09:25:00,
2013-03-13 05:30:00,47.1,41.3,30.01,NNW,328,1.0,2.0,80,0.00,CLR,,0.00,WeatherDisplay:10.37,2013-03-13 09:30:00,
2013-03-13 05:35:00,47.1,41.3,30.02,NW,323,0.0,2.0,80,0.00,CLR,,0.00,WeatherDisplay:10.37,2013-03-13 09:35:00,
2013-03-13 05:40:00,47.1,41.3,30.01,WNW,299,0.0,2.0,80,0.00,CLR,,0.00,WeatherDisplay:10.37,2013-03-13 09:40:00,
2013-03-13 05:45:00,46.7,41.1,30.02,WNW,292,0.0,1.0,81,0.00,CLR,,0.00,WeatherDisplay:10.37,2013-03-13 09:45:00,
2013-03-13 05:50:00,46.3,40.8,30.02,NW,317,0.0,0.0,81,0.00,CLR,,0.00,WeatherDisplay:10.37,2013-03-13 09:50:00,
2013-03-13 05:55:00,45.9,40.7,30.03,NW,323,0.0,1.0,82,0.00,CLR,,0.00,WeatherDisplay:10.37,2013-03-13 09:55:00,
2013-03-13 06:00:00,45.5,40.7,30.03,NW,323,0.0,1.0,83,0.00,CLR,,0.00,WeatherDisplay:10.37,2013-03-13 10:00:00,
2013-03-13 06:05:00,45.1,40.6,30.03,WNW,283,0.0,0.0,84,0.00,CLR,,0.00,WeatherDisplay:10.37,2013-03-13 10:05:00,
2013-03-13 06:10:00,44.9,40.7,30.03,WSW,253,0.0,2.0,85,0.00,CLR,,0.00,WeatherDisplay:10.37,2013-03-13 10:10:00,
2013-03-13 06:15:00,44.6,40.7,30.04,WNW,291,0.0,2.0,86,0.00,CLR,,0.00,WeatherDisplay:10.37,2013-03-13 10:15:00,
2013-03-13 06:20:00,44.4,40.5,30.04,NW,323,0.0,0.0,86,0.00,CLR,,0.00,WeatherDisplay:10.37,2013-03-13 10:20:00,
2013-03-13 06:25:00,44.2,40.6,30.04,NW,323,0.0,2.0,87,0.00,CLR,,0.00,WeatherDisplay:10.37,2013-03-13 10:25:00,
2013-03-13 06:30:00,44.2,40.6,30.04,NW,323,0.0,2.0,87,0.00,CLR,,0.00,WeatherDisplay:10.37,2013-03-13 10:30:00,
2013-03-13 06:35:00,44.2,40.9,30.04,NW,323,0.0,2.0,88,0.00,CLR,,0.00,WeatherDisplay:10.37,2013-03-13 10:35:00,
2013-03-13 06:40:00,44.1,40.7,30.05,NW,323,0.0,2.0,88,0.00,CLR,,0.00,WeatherDisplay:10.37,2013-03-13 10:40:00,
2013-03-13 06:45:00,44.1,40.7,30.05,NW,325,0.0,2.0,88,0.00,CLR,,0.00,WeatherDisplay:10.37,2013-03-13 10:45:00,
2013-03-13 06:50:00,44.1,40.7,30.06,NNW,337,1.0,3.0,88,0.00,CLR,,0.00,WeatherDisplay:10.37,2013-03-13 10:50:00,
2013-03-13 06:55:00,44.1,40.5,30.06,NNW,329,0.0,3.0,87,0.00,CLR,,0.00,WeatherDisplay:10.37,2013-03-13 10:55:00,
2013-03-13 07:00:00,44.1,40.4,30.05,NW,312,0.0,2.0,87,0.00,CLR,,0.00,WeatherDisplay:10.37,2013-03-13 11:00:00,
2013-03-13 07:05:00,44.1,40.4,30.06,NW,316,0.0,2.0,87,0.00,CLR,,0.00,WeatherDisplay:10.37,2013-03-13 11:05:00,
2013-03-13 07:10:00,43.7,40.4,30.06,NW,305,0.0,2.0,88,0.00,CLR,,0.00,WeatherDisplay:10.37,2013-03-13 11:10:00,
2013-03-13 07:15:00,43.5,40.5,30.06,West,269,0.0,0.0,89,0.00,CLR,,0.00,WeatherDisplay:10.37,2013-03-13 11:15:00,
2013-03-13 07:20:00,43.5,40.5,30.06,WSW,239,0.0,0.0,89,0.00,CLR,,0.00,WeatherDisplay:10.37,2013-03-13 11:20:00,
2013-03-13 07:25:00,43.0,40.2,30.07,WSW,252,0.0,2.0,90,0.00,CLR,,0.00,WeatherDisplay:10.37,2013-03-13 11:25:00,
2013-03-13 07:30:00,43.0,40.5,30.07,West,279,0.0,2.0,91,0.00,CLR,,0.00,WeatherDisplay:10.37,2013-03-13 11:30:00,
2013-03-13 07:35:00,42.9,40.4,30.07,West,280,0.0,0.0,91,0.00,CLR,,0.00,WeatherDisplay:10.37,2013-03-13 11:35:00,
2013-03-13 07:40:00,42.7,40.3,30.08,West,278,0.0,0.0,91,0.00,CLR,,0.00,WeatherDisplay:10.37,2013-03-13 11:40:00,
2013-03-13 07:45:00,42.4,40.3,30.07,West,278,0.0,0.0,92,0.00,CLR,,0.00,WeatherDisplay:10.37,2013-03-13 11:45:00,
2013-03-13 07:50:00,42.3,40.1,30.07,WSW,253,0.0,0.0,92,0.00,CLR,,0.00,WeatherDisplay:10.37,2013-03-13 11:50:00,
2013-03-13 07:55:00,42.3,40.4,30.08,SW,233,0.0,0.0,93,0.00,CLR,,0.00,WeatherDisplay:10.37,2013-03-13 11:55:00,
2013-03-13 08:00:00,42.1,40.5,30.08,SW,233,0.0,0.0,94,0.00,CLR,,0.00,WeatherDisplay:10.37,2013-03-13 12:00:00,
2013-03-13 08:05:00,42.1,40.8,30.08,SW,233,0.0,0.0,95,0.00,CLR,,0.00,WeatherDisplay:10.37,2013-03-13 12:05:00,
2013-03-13 08:10:00,42.1,40.8,30.08,SW,233,0.0,0.0,95,0.00,CLR,,0.00,WeatherDisplay:10.37,2013-03-13 12:10:00,
2013-03-13 08:15:00,42.1,41.0,30.08,SW,233,0.0,0.0,96,0.00,CLR,,0.00,WeatherDisplay:10.37,2013-03-13 12:15:00,
2013-03-13 08:20:00,42.4,41.4,30.08,West,276,0.0,1.0,96,0.00,CLR,,0.00,WeatherDisplay:10.37,2013-03-13 12:20:00,
2013-03-13 08:25:00,43.4,42.0,30.08,NW,312,0.0,2.0,95,0.00,CLR,,0.00,WeatherDisplay:10.37,2013-03-13 12:25:00,
2013-03-13 08:30:00,44.7,42.8,30.09,NW,318,1.0,2.0,93,0.00,CLR,,0.00,WeatherDisplay:10.37,2013-03-13 12:30:00,
2013-03-13 08:35:00,46.0,43.2,30.09,North,357,0.0,2.0,90,0.00,CLR,,0.00,WeatherDisplay:10.37,2013-03-13 12:35:00,
2013-03-13 08:40:00,47.2,43.2,30.10,North,357,1.0,2.0,86,0.00,CLR,,0.00,WeatherDisplay:10.37,2013-03-13 12:40:00,
2013-03-13 08:45:00,48.1,43.1,30.10,North,352,1.0,3.0,83,0.00,CLR,,0.00,WeatherDisplay:10.37,2013-03-13 12:45:00,
2013-03-13 08:50:00,49.1,42.8,30.10,NNW,346,1.0,3.0,79,0.00,CLR,,0.00,WeatherDisplay:10.37,2013-03-13 12:50:00,
2013-03-13 08:55:00,49.7,42.1,30.10,North,8,1.0,3.0,75,0.00,CLR,,0.00,WeatherDisplay:10.37,2013-03-13 12:55:00,
2013-03-13 09:00:00,50.4,42.1,30.10,North,1,1.0,3.0,73,0.00,CLR,,0.00,WeatherDisplay:10.37,2013-03-13 13:00:00,
2013-03-13 09:05:00,50.9,41.8,30.10,North,356,1.0,3.0,71,0.00,CLR,,0.00,WeatherDisplay:10.37,2013-03-13 13:05:00,
2013-03-13 09:10:00,51.4,40.8,30.11,North,9,1.0,5.0,67,0.00,CLR,,0.00,WeatherDisplay:10.37,2013-03-13 13:10:00,
2013-03-13 09:15:00,51.4,39.7,30.11,North,358,1.0,5.0,64,0.00,CLR,,0.00,WeatherDisplay:10.37,2013-03-13 13:15:00,
2013-03-13 09:20:00,52.0,40.6,30.11,NNW,348,1.0,4.0,65,0.00,CLR,,0.00,WeatherDisplay:10.37,2013-03-13 13:20:00,
2013-03-13 09:25:00,52.3,39.7,30.11,NNW,346,1.0,6.0,62,0.00,CLR,,0.00,WeatherDisplay:10.37,2013-03-13 13:25:00,
2013-03-13 09:30:00,52.6,40.4,30.11,North,353,1.0,6.0,63,0.00,CLR,,0.00,WeatherDisplay:10.37,2013-03-13 13:30:00,
2013-03-13 09:35:00,53.1,40.0,30.11,NNW,343,1.0,5.0,61,0.00,CLR,,0.00,WeatherDisplay:10.37,2013-03-13 13:35:00,
2013-03-13 09:40:00,53.2,39.3,30.11,NNW,335,1.0,5.0,59,0.00,CLR,,0.00,WeatherDisplay:10.37,2013-03-13 13:40:00,
2013-03-13 09:45:00,53.6,38.7,30.12,NNW,345,1.0,6.0,57,0.00,CLR,,0.00,WeatherDisplay:10.37,2013-03-13 13:45:00,
2013-03-13 09:55:00,54.7,40.2,30.11,NNW,336,1.0,4.0,58,0.00,CLR,,0.00,WeatherDisplay:10.37,2013-03-13 13:55:00,
2013-03-13 10:00:00,55.4,40.4,30.11,NNW,340,1.0,4.0,57,0.00,CLR,,0.00,WeatherDisplay:10.37,2013-03-13 14:00:00,
2013-03-13 10:05:00,55.9,40.5,30.11,NNW,334,0.0,4.0,56,0.00,CLR,,0.00,WeatherDisplay:10.37,2013-03-13 14:05:00,
2013-03-13 10:10:00,56.3,39.9,30.11,NNW,344,0.0,4.0,54,0.00,CLR,,0.00,WeatherDisplay:10.37,2013-03-13 14:10:00,
2013-03-13 10:15:00,56.3,37.9,30.11,North,351,1.0,6.0,50,0.00,CLR,,0.00,WeatherDisplay:10.37,2013-03-13 14:15:00,
2013-03-13 10:20:00,56.3,36.3,30.11,NNW,336,2.0,6.0,47,0.00,CLR,,0.00,WeatherDisplay:10.37,2013-03-13 14:20:00,
2013-03-13 10:25:00,56.3,37.4,30.11,NNW,330,1.0,5.0,49,0.00,CLR,,0.00,WeatherDisplay:10.37,2013-03-13 14:25:00,
2013-03-13 10:30:00,56.7,37.3,30.11,NNW,332,1.0,6.0,48,0.00,CLR,,0.00,WeatherDisplay:10.37,2013-03-13 14:30:00,
2013-03-13 10:35:00,57.6,37.5,30.11,North,353,1.0,4.0,47,0.00,CLR,,0.00,WeatherDisplay:10.37,2013-03-13 14:35:00,
2013-03-13 10:40:00,57.9,37.2,30.11,North,3,2.0,5.0,46,0.00,CLR,,0.00,WeatherDisplay:10.37,2013-03-13 14:40:00,
2013-03-13 10:45:00,58.5,37.7,30.11,NNW,344,1.0,3.0,46,0.00,CLR,,0.00,WeatherDisplay:10.37,2013-03-13 14:45:00,
2013-03-13 10:50:00,58.5,36.6,30.11,NW,326,1.0,5.0,44,0.00,CLR,,0.00,WeatherDisplay:10.37,2013-03-13 14:50:00,
2013-03-13 10:55:00,58.9,37.0,30.11,NNW,338,1.0,5.0,44,0.00,CLR,,0.00,WeatherDisplay:10.37,2013-03-13 14:55:00,
2013-03-13 11:00:00,59.1,36.6,30.11,NNW,333,3.0,6.0,43,0.00,CLR,,0.00,WeatherDisplay:10.37,2013-03-13 15:00:00,
2013-03-13 11:05:00,59.4,35.6,30.11,North,349,1.0,5.0,41,0.00,CLR,,0.00,WeatherDisplay:10.37,2013-03-13 15:05:00,
2013-03-13 11:10:00,59.5,36.4,30.11,NNW,344,1.0,3.0,42,0.00,CLR,,0.00,WeatherDisplay:10.37,2013-03-13 15:10:00,
2013-03-13 11:15:00,59.5,34.5,30.11,NW,312,2.0,6.0,39,0.00,CLR,,0.00,WeatherDisplay:10.37,2013-03-13 15:15:00,
2013-03-13 11:20:00,59.7,34.7,30.11,NNW,331,3.0,6.0,39,0.00,CLR,,0.00,WeatherDisplay:10.37,2013-03-13 15:20:00,
2013-03-13 11:25:00,59.6,34.0,30.11,NNW,345,2.0,6.0,38,0.00,CLR,,0.00,WeatherDisplay:10.37,2013-03-13 15:25:00,
2013-03-13 11:30:00,59.9,33.5,30.10,NNE,19,1.0,6.0,37,0.00,CLR,,0.00,WeatherDisplay:10.37,2013-03-13 15:30:00,
2013-03-13 11:35:00,60.3,33.9,30.10,NNE,25,1.0,5.0,37,0.00,CLR,,0.00,WeatherDisplay:10.37,2013-03-13 15:35:00,
2013-03-13 11:40:00,60.3,35.2,30.10,WNW,292,0.0,4.0,39,0.00,CLR,,0.00,WeatherDisplay:10.37,2013-03-13 15:40:00,
2013-03-13 11:45:00,60.6,34.2,30.10,NW,308,1.0,4.0,37,0.00,CLR,,0.00,WeatherDisplay:10.37,2013-03-13 15:45:00,
2013-03-13 11:50:00,61.2,34.0,30.10,NW,306,1.0,4.0,36,0.00,CLR,,0.00,WeatherDisplay:10.37,2013-03-13 15:50:00,
2013-03-13 11:55:00,61.5,35.0,30.09,WNW,302,1.0,4.0,37,0.00,CLR,,0.00,WeatherDisplay:10.37,2013-03-13 15:55:00,
2013-03-13 12:00:00,61.9,35.3,30.09,NW,317,0.0,4.0,37,0.00,CLR,,0.00,WeatherDisplay:10.37,2013-03-13 16:00:00,
2013-03-13 12:05:00,61.7,34.5,30.09,NW,321,1.0,4.0,36,0.00,CLR,,0.00,WeatherDisplay:10.37,2013-03-13 16:05:00,
2013-03-13 12:10:00,61.9,33.9,30.09,NNW,336,1.0,6.0,35,0.00,CLR,,0.00,WeatherDisplay:10.37,2013-03-13 16:10:00,
2013-03-13 12:15:00,62.2,33.5,30.09,North,5,1.0,4.0,34,0.00,CLR,,0.00,WeatherDisplay:10.37,2013-03-13 16:15:00,
2013-03-13 12:20:00,62.1,33.3,30.09,North,8,0.0,6.0,34,0.00,CLR,,0.00,WeatherDisplay:10.37,2013-03-13 16:20:00,
2013-03-13 12:25:00,62.2,34.9,30.08,NW,324,0.0,6.0,36,0.00,CLR,,0.00,WeatherDisplay:10.37,2013-03-13 16:25:00,
2013-03-13 12:30:00,62.6,33.8,30.08,NW,305,1.0,6.0,34,0.00,CLR,,0.00,WeatherDisplay:10.37,2013-03-13 16:30:00,
2013-03-13 12:35:00,63.0,34.9,30.08,NNW,327,0.0,4.0,35,0.00,CLR,,0.00,WeatherDisplay:10.37,2013-03-13 16:35:00,
2013-03-13 12:40:00,63.0,33.4,30.08,NW,323,1.0,6.0,33,0.00,CLR,,0.00,WeatherDisplay:10.37,2013-03-13 16:40:00,
2013-03-13 12:45:00,62.8,31.7,30.07,WNW,300,1.0,6.0,31,0.00,CLR,,0.00,WeatherDisplay:10.37,2013-03-13 16:45:00,
2013-03-13 12:50:00,63.3,32.1,30.07,NNW,333,1.0,4.0,31,0.00,CLR,,0.00,WeatherDisplay:10.37,2013-03-13 16:50:00,
2013-03-13 12:55:00,64.0,33.5,30.07,SW,222,1.0,8.0,32,0.00,CLR,,0.00,WeatherDisplay:10.37,2013-03-13 16:55:00,
2013-03-13 13:00:00,63.8,30.9,30.06,West,270,2.0,8.0,29,0.00,CLR,,0.00,WeatherDisplay:10.37,2013-03-13 17:00:00,
2013-03-13 13:05:00,64.0,30.2,30.07,NW,313,2.0,8.0,28,0.00,CLR,,0.00,WeatherDisplay:10.37,2013-03-13 17:05:00,
2013-03-13 13:10:00,64.2,29.5,30.06,NW,320,1.0,6.0,27,0.00,CLR,,0.00,WeatherDisplay:10.37,2013-03-13 17:10:00,
2013-03-13 13:15:00,64.3,29.6,30.06,NW,321,1.0,6.0,27,0.00,CLR,,0.00,WeatherDisplay:10.37,2013-03-13 17:15:00,
2013-03-13 13:20:00,64.5,29.7,30.06,North,352,2.0,6.0,27,0.00,CLR,,0.00,WeatherDisplay:10.37,2013-03-13 17:20:00,
2013-03-13 13:25:00,64.8,30.0,30.06,North,351,1.0,4.0,27,0.00,CLR,,0.00,WeatherDisplay:10.37,2013-03-13 17:25:00,
2013-03-13 13:30:00,64.9,31.0,30.05,West,272,1.0,12.0,28,0.00,CLR,,0.00,WeatherDisplay:10.37,2013-03-13 17:30:00,
2013-03-13 13:35:00,64.9,28.2,30.05,SSW,208,0.0,12.0,25,0.00,CLR,,0.00,WeatherDisplay:10.37,2013-03-13 17:35:00,
2013-03-13 13:40:00,64.9,28.2,30.04,South,178,0.0,2.0,25,0.00,CLR,,0.00,WeatherDisplay:10.37,2013-03-13 17:40:00,
2013-03-13 13:45:00,65.3,28.5,30.04,SSE,151,1.0,6.0,25,0.00,CLR,,0.00,WeatherDisplay:10.37,2013-03-13 17:45:00,
2013-03-13 13:50:00,65.1,25.3,30.04,WSW,244,2.0,6.0,22,0.00,CLR,,0.00,WeatherDisplay:10.37,2013-03-13 17:50:00,
2013-03-13 13:55:00,65.0,27.3,30.03,NNW,332,5.0,8.0,24,0.00,CLR,,0.00,WeatherDisplay:10.37,2013-03-13 17:55:00,
2013-03-13 14:00:00,64.9,25.1,30.03,NNW,339,3.0,8.0,22,0.00,CLR,,0.00,WeatherDisplay:10.37,2013-03-13 18:00:00,
2013-03-13 14:05:00,65.1,27.4,30.02,NW,310,1.0,6.0,24,0.00,CLR,,0.00,WeatherDisplay:10.37,2013-03-13 18:05:00,
2013-03-13 14:10:00,65.5,24.5,30.02,West,280,1.0,6.0,21,0.00,CLR,,0.00,WeatherDisplay:10.37,2013-03-13 18:10:00,
2013-03-13 14:15:00,65.2,23.1,30.02,NNW,337,1.0,6.0,20,0.00,CLR,,0.00,WeatherDisplay:10.37,2013-03-13 18:15:00,
2013-03-13 14:20:00,65.3,23.2,30.01,NNW,336,1.0,7.0,20,0.00,CLR,,0.00,WeatherDisplay:10.37,2013-03-13 18:20:00,
2013-03-13 14:25:00,65.6,23.4,30.01,West,281,1.0,8.0,20,0.00,CLR,,0.00,WeatherDisplay:10.37,2013-03-13 18:25:00,
2013-03-13 14:30:00,66.2,21.4,30.01,WNW,286,2.0,6.0,18,0.00,CLR,,0.00,WeatherDisplay:10.37,2013-03-13 18:30:00,
2013-03-13 14:35:00,66.2,21.4,30.00,NW,320,2.0,6.0,18,0.00,CLR,,0.00,WeatherDisplay:10.37,2013-03-13 18:35:00,
2013-03-13 14:40:00,66.6,20.3,30.00,NW,313,1.0,6.0,17,0.00,CLR,,0.00,WeatherDisplay:10.37,2013-03-13 18:40:00,
2013-03-13 14:45:00,66.4,18.8,30.00,West,269,1.0,8.0,16,0.00,CLR,,0.00,WeatherDisplay:10.37,2013-03-13 18:45:00,
2013-03-13 14:50:00,65.8,18.3,30.00,WNW,302,1.0,6.0,16,0.00,CLR,,0.00,WeatherDisplay:10.37,2013-03-13 18:50:00,
2013-03-13 14:55:00,65.8,16.8,29.99,NW,312,1.0,6.0,15,0.00,CLR,,0.00,WeatherDisplay:10.37,2013-03-13 18:55:00,
2013-03-13 15:00:00,66.0,18.5,29.99,WNW,295,1.0,6.0,16,0.00,CLR,,0.00,WeatherDisplay:10.37,2013-03-13 19:00:00,
2013-03-13 15:05:00,66.0,18.5,29.99,NW,308,1.0,2.0,16,0.00,CLR,,0.00,WeatherDisplay:10.37,2013-03-13 19:05:00,
2013-03-13 15:10:00,66.6,20.3,29.99,WNW,286,0.0,4.0,17,0.00,CLR,,0.00,WeatherDisplay:10.37,2013-03-13 19:10:00,
2013-03-13 15:15:00,67.1,19.4,29.98,West,272,0.0,5.0,16,0.00,CLR,,0.00,WeatherDisplay:10.37,2013-03-13 19:15:00,
2013-03-13 15:20:00,67.1,19.4,29.98,WNW,297,0.0,6.0,16,0.00,CLR,,0.00,WeatherDisplay:10.37,2013-03-13 19:20:00,
2013-03-13 15:25:00,67.1,17.8,29.98,West,268,1.0,4.0,15,0.00,CLR,,0.00,WeatherDisplay:10.37,2013-03-13 19:25:00,
2013-03-13 15:30:00,67.1,19.4,29.98,West,273,1.0,4.0,16,0.00,CLR,,0.00,WeatherDisplay:10.37,2013-03-13 19:30:00,
2013-03-13 15:35:00,67.0,20.7,29.97,NW,318,1.0,6.0,17,0.00,CLR,,0.00,WeatherDisplay:10.37,2013-03-13 19:35:00,
2013-03-13 15:40:00,66.9,19.2,29.98,NW,309,1.0,8.0,16,0.00,CLR,,0.00,WeatherDisplay:10.37,2013-03-13 19:40:00,
2013-03-13 15:45:00,66.9,19.2,29.98,WNW,302,1.0,5.0,16,0.00,CLR,,0.00,WeatherDisplay:10.37,2013-03-13 19:45:00,
2013-03-13 15:50:00,66.9,17.7,29.98,SW,227,1.0,6.0,15,0.00,CLR,,0.00,WeatherDisplay:10.37,2013-03-13 19:50:00,
2013-03-13 15:55:00,66.4,17.3,29.97,South,177,1.0,5.0,15,0.00,CLR,,0.00,WeatherDisplay:10.37,2013-03-13 19:55:00,
2013-03-13 16:00:00,66.4,18.8,29.97,SSW,211,1.0,4.0,16,0.00,CLR,,0.00,WeatherDisplay:10.37,2013-03-13 20:00:00,
2013-03-13 16:05:00,66.2,20.0,29.97,WNW,287,1.0,4.0,17,0.00,CLR,,0.00,WeatherDisplay:10.37,2013-03-13 20:05:00,
2013-03-13 16:10:00,65.6,19.5,29.97,West,263,2.0,6.0,17,0.00,CLR,,0.00,WeatherDisplay:10.37,2013-03-13 20:10:00,
2013-03-13 16:15:00,64.7,15.9,29.98,NNW,333,1.0,7.0,15,0.00,CLR,,0.00,WeatherDisplay:10.37,2013-03-13 20:15:00,
2013-03-13 16:20:00,64.2,18.4,29.97,North,353,1.0,5.0,17,0.00,CLR,,0.00,WeatherDisplay:10.37,2013-03-13 20:20:00,
2013-03-13 16:25:00,63.5,16.4,29.97,NNW,331,1.0,6.0,16,0.00,CLR,,0.00,WeatherDisplay:10.37,2013-03-13 20:25:00,
2013-03-13 16:30:00,63.3,14.8,29.97,NW,316,2.0,8.0,15,0.00,CLR,,0.00,WeatherDisplay:10.37,2013-03-13 20:30:00,
2013-03-13 16:35:00,63.0,14.5,29.97,WNW,284,1.0,6.0,15,0.00,CLR,,0.00,WeatherDisplay:10.37,2013-03-13 20:35:00,
2013-03-13 16:40:00,62.8,14.4,29.97,NW,314,2.0,6.0,15,0.00,CLR,,0.00,WeatherDisplay:10.37,2013-03-13 20:40:00,
2013-03-13 16:45:00,62.8,15.9,29.97,NW,321,1.0,6.0,16,0.00,CLR,,0.00,WeatherDisplay:10.37,2013-03-13 20:45:00,
2013-03-13 16:50:00,62.8,14.4,29.97,WNW,302,1.0,6.0,15,0.00,CLR,,0.00,WeatherDisplay:10.37,2013-03-13 20:50:00,
2013-03-13 16:55:00,62.7,15.8,29.97,WNW,298,1.0,5.0,16,0.00,CLR,,0.00,WeatherDisplay:10.37,2013-03-13 20:55:00,
2013-03-13 17:00:00,62.6,18.4,29.97,NW,311,1.0,6.0,18,0.00,CLR,,0.00,WeatherDisplay:10.37,2013-03-13 21:00:00,
2013-03-13 17:05:00,62.8,17.3,29.97,NNW,334,1.0,4.0,17,0.00,CLR,,0.00,WeatherDisplay:10.37,2013-03-13 21:05:00,
2013-03-13 17:10:00,62.6,17.1,29.97,WNW,302,0.0,6.0,17,0.00,CLR,,0.00,WeatherDisplay:10.37,2013-03-13 21:10:00,
2013-03-13 17:15:00,62.4,17.0,29.97,WNW,298,1.0,3.0,17,0.00,CLR,,0.00,WeatherDisplay:10.37,2013-03-13 21:15:00,
2013-03-13 17:20:00,62.4,19.6,29.97,SSW,202,1.0,4.0,19,0.00,CLR,,0.00,WeatherDisplay:10.37,2013-03-13 21:20:00,
2013-03-13 17:25:00,62.4,20.8,29.97,WSW,246,1.0,3.0,20,0.00,CLR,,0.00,WeatherDisplay:10.37,2013-03-13 21:25:00,
2013-03-13 17:30:00,62.2,18.1,29.97,North,352,3.0,6.0,18,0.00,CLR,,0.00,WeatherDisplay:10.37,2013-03-13 21:30:00,
2013-03-13 17:35:00,62.1,19.3,29.97,NNW,337,1.0,6.0,19,0.00,CLR,,0.00,WeatherDisplay:10.37,2013-03-13 21:35:00,
2013-03-13 17:40:00,61.9,19.1,29.97,WNW,296,1.0,5.0,19,0.00,CLR,,0.00,WeatherDisplay:10.37,2013-03-13 21:40:00,
2013-03-13 17:45:00,61.8,19.0,29.97,NNW,331,1.0,5.0,19,0.00,CLR,,0.00,WeatherDisplay:10.37,2013-03-13 21:45:00,
2013-03-13 17:50:00,61.7,19.0,29.97,West,268,3.0,6.0,19,0.00,CLR,,0.00,WeatherDisplay:10.37,2013-03-13 21:50:00,
2013-03-13 17:55:00,61.6,20.1,29.97,West,272,2.0,6.0,20,0.00,CLR,,0.00,WeatherDisplay:10.37,2013-03-13 21:55:00,
2013-03-13 18:00:00,61.4,18.7,29.97,NW,325,1.0,6.0,19,0.00,CLR,,0.00,WeatherDisplay:10.37,2013-03-13 22:00:00,
2013-03-13 18:05:00,61.3,18.7,29.97,NNW,338,2.0,6.0,19,0.00,CLR,,0.00,WeatherDisplay:10.37,2013-03-13 22:05:00,
2013-03-13 18:10:00,61.2,19.7,29.97,NW,309,1.0,6.0,20,0.00,CLR,,0.00,WeatherDisplay:10.37,2013-03-13 22:10:00,
2013-03-13 18:15:00,61.0,19.6,29.97,WNW,294,1.0,5.0,20,0.00,CLR,,0.00,WeatherDisplay:10.37,2013-03-13 22:15:00,
2013-03-13 18:20:00,60.8,21.7,29.97,WNW,283,1.0,3.0,22,0.00,CLR,,0.00,WeatherDisplay:10.37,2013-03-13 22:20:00,
2013-03-13 18:25:00,60.8,21.7,29.97,NNW,333,2.0,5.0,22,0.00,CLR,,0.00,WeatherDisplay:10.37,2013-03-13 22:25:00,
2013-03-13 18:30:00,60.8,20.6,29.97,NW,323,1.0,5.0,21,0.00,CLR,,0.00,WeatherDisplay:10.37,2013-03-13 22:30:00,
2013-03-13 18:35:00,60.6,20.4,29.98,NW,315,2.0,5.0,21,0.00,CLR,,0.00,WeatherDisplay:10.37,2013-03-13 22:35:00,
2013-03-13 18:40:00,60.4,21.4,29.98,NW,307,0.0,5.0,22,0.00,CLR,,0.00,WeatherDisplay:10.37,2013-03-13 22:40:00,
2013-03-13 18:45:00,60.1,22.1,29.98,West,281,0.0,2.0,23,0.00,CLR,,0.00,WeatherDisplay:10.37,2013-03-13 22:45:00,
2013-03-13 18:50:00,59.7,22.8,29.98,NW,304,0.0,2.0,24,0.00,CLR,,0.00,WeatherDisplay:10.37,2013-03-13 22:50:00,
2013-03-13 18:55:00,59.4,23.6,29.98,WNW,284,0.0,3.0,25,0.00,CLR,,0.00,WeatherDisplay:10.37,2013-03-13 22:55:00,
2013-03-13 19:00:00,59.0,22.2,29.99,West,280,1.0,2.0,24,0.00,CLR,,0.00,WeatherDisplay:10.37,2013-03-13 23:00:00,
2013-03-13 19:05:00,59.0,23.2,29.99,NNW,333,0.0,2.0,25,0.00,CLR,,0.00,WeatherDisplay:10.37,2013-03-13 23:05:00,
2013-03-13 19:10:00,58.6,22.9,29.99,NW,324,0.0,2.0,25,0.00,CLR,,0.00,WeatherDisplay:10.37,2013-03-13 23:10:00,
2013-03-13 19:15:00,58.3,23.5,29.99,WNW,290,0.0,2.0,26,0.00,CLR,,0.00,WeatherDisplay:10.37,2013-03-13 23:15:00,
2013-03-13 19:20:00,57.9,23.2,29.99,WNW,290,0.0,2.0,26,0.00,CLR,,0.00,WeatherDisplay:10.37,2013-03-13 23:20:00,
2013-03-13 19:25:00,57.4,23.7,29.99,SSE,167,0.0,2.0,27,0.00,CLR,,0.00,WeatherDisplay:10.37,2013-03-13 23:25:00,
2013-03-13 19:30:00,57.0,23.3,30.00,SW,230,0.0,2.0,27,0.00,CLR,,0.00,WeatherDisplay:10.37,2013-03-13 23:30:00,
2013-03-13 19:35:00,56.7,23.9,30.00,WSW,251,0.0,2.0,28,0.00,CLR,,0.00,WeatherDisplay:10.37,2013-03-13 23:35:00,
2013-03-13 19:40:00,56.3,23.6,30.00,WNW,293,0.0,1.0,28,0.00,CLR,,0.00,WeatherDisplay:10.37,2013-03-13 23:40:00,
2013-03-13 19:45:00,55.9,24.1,30.00,WNW,296,0.0,1.0,29,0.00,CLR,,0.00,WeatherDisplay:10.37,2013-03-13 23:45:00,
2013-03-13 19:50:00,55.6,23.8,30.00,SSW,201,0.0,1.0,29,0.00,CLR,,0.00,WeatherDisplay:10.37,2013-03-13 23:50:00,
2013-03-13 19:55:00,55.2,23.5,30.00,SSW,197,0.0,1.0,29,0.00,CLR,,0.00,WeatherDisplay:10.37,2013-03-13 23:55:00,
2013-03-13 20:00:00,54.9,24.0,30.01,SW,220,0.0,1.0,30,0.00,CLR,,0.00,WeatherDisplay:10.37,2013-03-14 00:00:00,
2013-03-13 20:05:00,54.7,23.8,30.01,SW,233,0.0,1.0,30,0.00,CLR,,0.00,WeatherDisplay:10.37,2013-03-14 00:05:00,
2013-03-13 20:10:00,54.2,24.2,30.01,SW,233,0.0,0.0,31,0.00,CLR,,0.00,WeatherDisplay:10.37,2013-03-14 00:10:00,
2013-03-13 20:15:00,53.8,24.6,30.01,WSW,255,0.0,1.0,32,0.00,CLR,,0.00,WeatherDisplay:10.37,2013-03-14 00:15:00,
2013-03-13 20:20:00,53.6,24.4,30.01,WSW,245,0.0,1.0,32,0.00,CLR,,0.00,WeatherDisplay:10.37,2013-03-14 00:20:00,
2013-03-13 20:25:00,53.2,24.8,30.01,SW,232,0.0,0.0,33,0.00,CLR,,0.00,WeatherDisplay:10.37,2013-03-14 00:25:00,
2013-03-13 20:30:00,53.0,24.6,30.02,SW,233,0.0,0.0,33,0.00,CLR,,0.00,WeatherDisplay:10.37,2013-03-14 00:30:00,
2013-03-13 20:35:00,52.5,25.6,30.01,SW,233,0.0,1.0,35,0.00,CLR,,0.00,WeatherDisplay:10.37,2013-03-14 00:35:00,
2013-03-13 20:40:00,52.3,26.1,30.02,SW,215,0.0,1.0,36,0.00,CLR,,0.00,WeatherDisplay:10.37,2013-03-14 00:40:00,
2013-03-13 20:45:00,52.0,25.8,30.02,SSW,210,0.0,1.0,36,0.00,CLR,,0.00,WeatherDisplay:10.37,2013-03-14 00:45:00,
2013-03-13 20:50:00,51.8,26.3,30.02,SW,228,0.0,1.0,37,0.00,CLR,,0.00,WeatherDisplay:10.37,2013-03-14 00:50:00,
2013-03-13 20:55:00,51.6,26.8,30.02,SW,233,0.0,0.0,38,0.00,CLR,,0.00,WeatherDisplay:10.37,2013-03-14 00:55:00,
2013-03-13 21:00:00,51.3,26.5,30.02,SW,233,0.0,1.0,38,0.00,CLR,,0.00,WeatherDisplay:10.37,2013-03-14 01:00:00,
2013-03-13 21:05:00,50.9,27.4,30.02,SW,225,0.0,2.0,40,0.00,CLR,,0.00,WeatherDisplay:10.37,2013-03-14 01:05:00,
2013-03-13 21:10:00,50.5,27.7,30.02,SW,214,0.0,1.0,41,0.00,CLR,,0.00,WeatherDisplay:10.37,2013-03-14 01:10:00,
2013-03-13 21:15:00,50.3,27.5,30.03,SSW,197,0.0,0.0,41,0.00,CLR,,0.00,WeatherDisplay:10.37,2013-03-14 01:15:00,
2013-03-13 21:20:00,50.0,27.8,30.03,South,188,0.0,0.0,42,0.00,CLR,,0.00,WeatherDisplay:10.37,2013-03-14 01:20:00,
2013-03-13 21:25:00,49.8,27.6,30.04,South,188,0.0,1.0,42,0.00,CLR,,0.00,WeatherDisplay:10.37,2013-03-14 01:25:00,
2013-03-13 21:30:00,49.5,27.9,30.04,South,188,0.0,0.0,43,0.00,CLR,,0.00,WeatherDisplay:10.37,2013-03-14 01:30:00,
2013-03-13 21:35:00,49.1,28.7,30.04,South,188,0.0,0.0,45,0.00,CLR,,0.00,WeatherDisplay:10.37,2013-03-14 01:35:00,
2013-03-13 21:40:00,49.1,29.2,30.04,South,188,0.0,0.0,46,0.00,CLR,,0.00,WeatherDisplay:10.37,2013-03-14 01:40:00,
2013-03-13 21:45:00,48.4,30.1,30.04,South,191,0.0,1.0,49,0.00,CLR,,0.00,WeatherDisplay:10.37,2013-03-14 01:45:00,
2013-03-13 21:50:00,48.0,30.7,30.04,South,191,0.0,1.0,51,0.00,CLR,,0.00,WeatherDisplay:10.37,2013-03-14 01:50:00,
2013-03-13 21:55:00,47.7,31.8,30.04,South,188,0.0,1.0,54,0.00,CLR,,0.00,WeatherDisplay:10.37,2013-03-14 01:55:00,
2013-03-13 22:00:00,47.5,31.6,30.04,SW,220,0.0,1.0,54,0.00,CLR,,0.00,WeatherDisplay:10.37,2013-03-14 02:00:00,
2013-03-13 22:05:00,47.5,31.6,30.04,SW,233,0.0,1.0,54,0.00,CLR,,0.00,WeatherDisplay:10.37,2013-03-14 02:05:00,
2013-03-13 22:10:00,47.1,32.7,30.04,SW,218,0.0,1.0,57,0.00,CLR,,0.00,WeatherDisplay:10.37,2013-03-14 02:10:00,
2013-03-13 22:15:00,46.8,32.4,30.05,SW,222,0.0,1.0,57,0.00,CLR,,0.00,WeatherDisplay:10.37,2013-03-14 02:15:00,
2013-03-13 22:20:00,46.6,32.1,30.05,SW,234,0.0,1.0,57,0.00,CLR,,0.00,WeatherDisplay:10.37,2013-03-14 02:20:00,
2013-03-13 22:25:00,46.6,34.2,30.05,West,273,0.0,2.0,62,0.00,CLR,,0.00,WeatherDisplay:10.37,2013-03-14 02:25:00,
2013-03-13 22:30:00,46.6,33.8,30.06,WNW,300,0.0,2.0,61,0.00,CLR,,0.00,WeatherDisplay:10.37,2013-03-14 02:30:00,
2013-03-13 22:35:00,47.1,32.6,30.06,WNW,290,1.0,6.0,57,0.00,CLR,,0.00,WeatherDisplay:10.37,2013-03-14 02:35:00,
2013-03-13 22:40:00,48.8,30.5,30.06,NW,326,2.0,6.0,49,0.00,CLR,,0.00,WeatherDisplay:10.37,2013-03-14 02:40:00,
2013-03-13 22:45:00,50.1,30.1,30.07,NNW,343,2.0,6.0,46,0.00,CLR,,0.00,WeatherDisplay:10.37,2013-03-14 02:45:00,
2013-03-13 22:50:00,50.5,28.8,30.07,NNW,344,2.0,6.0,43,0.00,CLR,,0.00,WeatherDisplay:10.37,2013-03-14 02:50:00,
2013-03-13 22:55:00,50.8,28.5,30.07,NNW,330,2.0,6.0,42,0.00,CLR,,0.00,WeatherDisplay:10.37,2013-03-14 02:55:00,
2013-03-13 23:00:00,51.0,27.5,30.08,NNW,335,3.0,6.0,40,0.00,CLR,,0.00,WeatherDisplay:10.37,2013-03-14 03:00:00,
2013-03-13 23:10:00,51.0,25.6,30.08,NNW,335,2.0,6.0,37,0.00,CLR,,0.00,WeatherDisplay:10.37,2013-03-14 03:10:00,
2013-03-13 23:15:00,50.9,25.5,30.08,NNW,334,2.0,7.0,37,0.00,CLR,,0.00,WeatherDisplay:10.37,2013-03-14 03:15:00,
2013-03-13 23:20:00,50.7,25.4,30.09,NW,326,3.0,6.0,37,0.00,CLR,,0.00,WeatherDisplay:10.37,2013-03-14 03:20:00,
2013-03-13 23:25:00,50.7,25.3,30.09,NNW,336,2.0,6.0,37,0.00,CLR,,0.00,WeatherDisplay:10.37,2013-03-14 03:25:00,
2013-03-13 23:30:00,50.4,25.1,30.09,NNW,330,3.0,7.0,37,0.00,CLR,,0.00,WeatherDisplay:10.37,2013-03-14 03:30:00,
2013-03-13 23:35:00,50.4,25.0,30.10,NNW,335,2.0,6.0,37,0.00,CLR,,0.00,WeatherDisplay:10.37,2013-03-14 03:35:00,
2013-03-13 23:40:00,50.2,24.9,30.10,North,354,2.0,8.0,37,0.00,CLR,,0.00,WeatherDisplay:10.37,2013-03-14 03:40:00,
2013-03-13 23:45:00,50.0,24.7,30.10,NNW,341,1.0,6.0,37,0.00,CLR,,0.00,WeatherDisplay:10.37,2013-03-14 03:45:00,
2013-03-13 23:55:00,49.3,22.8,30.10,North,354,3.0,6.0,35,0.00,CLR,,0.00,WeatherDisplay:10.37,2013-03-14 03:55:00,